createdAt,value
2023-04-19T00:02:09.008Z,12.52
2023-04-19T00:04:38.309Z,12.56
2023-04-19T00:07:05.334Z,12.54
2023-04-19T00:09:32.266Z,12.44
2023-04-19T00:11:59.090Z,12.33
2023-04-19T00:14:26.060Z,12.31
2023-04-19T00:16:52.947Z,12.18
2023-04-19T00:19:19.855Z,12.03
2023-04-19T00:21:46.714Z,12.05
2023-04-19T00:24:13.828Z,12.05
2023-04-19T00:26:40.975Z,12.08
2023-04-19T00:29:09.636Z,11.99
2023-04-19T00:31:36.650Z,11.88
2023-04-19T00:34:03.495Z,11.77
2023-04-19T00:36:30.732Z,11.92
2023-04-19T00:38:57.910Z,11.88
2023-04-19T00:41:25.059Z,11.91
2023-04-19T00:43:52.099Z,11.89
2023-04-19T00:46:19.070Z,11.74
2023-04-19T00:48:46.032Z,11.79
2023-04-19T00:51:13.130Z,11.67
2023-04-19T00:53:40.755Z,11.58
2023-04-19T00:56:09.643Z,11.57
2023-04-19T00:58:38.699Z,11.55
2023-04-19T01:01:06.480Z,11.53
2023-04-19T01:03:35.194Z,11.51
2023-04-19T01:06:02.958Z,11.44
2023-04-19T01:08:29.895Z,11.38
2023-04-19T01:10:56.777Z,11.49
2023-04-19T01:13:23.703Z,11.44
2023-04-19T01:15:51.685Z,11.49
2023-04-19T01:18:19.532Z,11.52
2023-04-19T01:20:46.561Z,11.48
2023-04-19T01:23:13.567Z,11.51
2023-04-19T01:25:40.501Z,11.49
2023-04-19T01:28:07.937Z,11.53
2023-04-19T01:30:36.000Z,11.54
2023-04-19T01:33:03.342Z,11.59
2023-04-19T01:35:30.238Z,11.63
2023-04-19T01:37:57.128Z,11.68
2023-04-19T01:40:25.163Z,11.67
2023-04-19T01:42:52.733Z,11.71
2023-04-19T01:45:19.839Z,11.69
2023-04-19T01:47:47.295Z,11.73
2023-04-19T01:50:14.210Z,11.72
2023-04-19T01:52:41.198Z,11.72
2023-04-19T01:55:08.415Z,11.62
2023-04-19T01:57:35.441Z,11.59
2023-04-19T02:00:02.703Z,11.61
2023-04-19T02:02:29.759Z,11.70
2023-04-19T02:04:57.907Z,11.71
2023-04-19T02:07:24.914Z,11.66
2023-04-19T02:09:52.003Z,11.71
2023-04-19T02:12:18.928Z,11.70
2023-04-19T02:14:45.812Z,11.72
2023-04-19T02:17:12.966Z,11.61
2023-04-19T02:19:39.836Z,11.54
2023-04-19T02:22:06.738Z,11.54
2023-04-19T02:24:33.640Z,11.48
2023-04-19T02:27:00.926Z,11.44
2023-04-19T02:29:27.997Z,11.39
2023-04-19T02:31:55.289Z,11.26
2023-04-19T02:34:22.168Z,11.20
2023-04-19T02:36:48.961Z,11.07
2023-04-19T02:39:17.187Z,11.10
2023-04-19T02:41:44.885Z,11.05
2023-04-19T02:44:12.703Z,11.00
2023-04-19T02:46:40.122Z,11.04
2023-04-19T02:49:07.032Z,10.99
2023-04-19T02:51:33.913Z,11.04
2023-04-19T02:54:00.730Z,11.05
2023-04-19T02:56:27.549Z,10.89
2023-04-19T02:58:55.105Z,11.01
2023-04-19T03:01:22.072Z,10.90
2023-04-19T03:03:50.097Z,10.90
2023-04-19T03:06:17.302Z,10.84
2023-04-19T03:08:44.666Z,10.70
2023-04-19T03:11:12.852Z,10.60
2023-04-19T03:13:40.867Z,10.50
2023-04-19T03:16:08.141Z,10.40
2023-04-19T03:18:35.465Z,10.33
2023-04-19T03:21:03.218Z,10.22
2023-04-19T03:23:30.268Z,10.17
2023-04-19T03:25:57.322Z,10.06
2023-04-19T03:28:24.210Z,9.98
2023-04-19T03:30:51.111Z,9.98
2023-04-19T03:33:18.096Z,9.93
2023-04-19T03:35:45.734Z,9.85
2023-04-19T03:38:12.654Z,9.78
2023-04-19T03:40:39.596Z,9.75
2023-04-19T03:43:06.656Z,9.72
2023-04-19T03:45:33.575Z,9.69
2023-04-19T03:48:02.744Z,9.60
2023-04-19T03:50:30.255Z,9.61
2023-04-19T03:52:57.317Z,9.52
2023-04-19T03:55:24.177Z,9.57
2023-04-19T03:57:51.576Z,9.42
2023-04-19T04:00:18.670Z,9.52
2023-04-19T04:02:45.697Z,9.54
2023-04-19T04:05:13.021Z,9.57
2023-04-19T04:07:40.293Z,9.33
2023-04-19T04:10:08.141Z,9.63
2023-04-19T04:12:35.192Z,9.73
2023-04-19T04:15:02.306Z,9.69
2023-04-19T04:17:29.855Z,9.89
2023-04-19T04:19:56.909Z,9.89
2023-04-19T04:22:23.940Z,9.89
2023-04-19T04:24:51.075Z,9.96
2023-04-19T04:27:21.398Z,9.96
2023-04-19T04:29:49.551Z,10.00
2023-04-19T04:32:18.294Z,10.08
2023-04-19T04:34:45.641Z,9.98
2023-04-19T04:37:12.636Z,10.06
2023-04-19T04:39:40.034Z,10.01
2023-04-19T04:42:10.201Z,10.02
2023-04-19T04:44:37.371Z,9.88
2023-04-19T04:47:04.419Z,9.97
2023-04-19T04:49:31.513Z,9.93
2023-04-19T04:51:58.795Z,9.93
2023-04-19T04:54:25.670Z,9.99
2023-04-19T04:56:52.575Z,9.97
2023-04-19T04:59:19.998Z,10.11
2023-04-19T05:01:46.994Z,10.17
2023-04-19T05:04:14.216Z,10.24
2023-04-19T05:06:41.538Z,10.26
2023-04-19T05:09:08.505Z,10.46
2023-04-19T05:11:35.426Z,10.56
2023-04-19T05:14:03.439Z,10.72
2023-04-19T05:16:30.480Z,10.83
2023-04-19T05:18:57.361Z,10.97
2023-04-19T05:21:24.315Z,11.07
2023-04-19T05:23:53.662Z,11.21
2023-04-19T05:26:20.708Z,11.37
2023-04-19T05:28:47.720Z,11.44
2023-04-19T05:31:21.170Z,11.56
2023-04-19T05:33:48.440Z,11.56
2023-04-19T05:36:15.353Z,11.68
2023-04-19T05:38:42.405Z,11.71
2023-04-19T05:41:11.835Z,11.73
2023-04-19T05:43:39.231Z,11.78
2023-04-19T05:46:06.158Z,11.70
2023-04-19T05:48:33.209Z,11.82
2023-04-19T05:51:00.195Z,11.75
2023-04-19T05:53:27.084Z,11.83
2023-04-19T05:55:54.007Z,11.83
2023-04-19T05:58:21.061Z,11.96
2023-04-19T06:00:48.992Z,12.05
2023-04-19T06:03:16.265Z,11.97
2023-04-19T06:05:43.514Z,12.09
2023-04-19T06:08:11.560Z,11.95
2023-04-19T06:10:51.892Z,12.08
2023-04-19T06:13:23.079Z,12.37
2023-04-19T06:15:50.128Z,12.43
2023-04-19T06:18:19.623Z,12.56
2023-04-19T06:20:47.186Z,12.67
2023-04-19T06:23:15.065Z,12.84
2023-04-19T06:25:42.158Z,12.89
2023-04-19T06:28:09.054Z,13.12
2023-04-19T06:30:35.954Z,13.29
2023-04-19T06:33:03.288Z,13.44
2023-04-19T06:35:30.231Z,13.63
2023-04-19T06:37:57.051Z,13.85
2023-04-19T06:40:23.976Z,14.00
2023-04-19T06:42:51.029Z,13.78
2023-04-19T06:45:17.970Z,13.92
2023-04-19T06:47:44.943Z,14.22
2023-04-19T06:50:12.104Z,14.47
2023-04-19T06:52:39.363Z,14.37
2023-04-19T06:55:07.518Z,14.56
2023-04-19T06:57:34.605Z,14.38
2023-04-19T07:00:01.544Z,14.67
2023-04-19T07:02:28.619Z,14.83
2023-04-19T07:04:55.775Z,14.63
2023-04-19T07:07:22.646Z,14.88
2023-04-19T07:09:49.746Z,14.88
2023-04-19T07:12:16.637Z,15.01
2023-04-19T07:14:43.589Z,15.07
2023-04-19T07:17:10.500Z,15.37
2023-04-19T07:19:37.645Z,15.48
2023-04-19T07:22:06.295Z,15.34
2023-04-19T07:24:33.238Z,15.52
2023-04-19T07:27:00.121Z,15.82
2023-04-19T07:29:26.990Z,15.95
2023-04-19T07:31:55.537Z,16.25
2023-04-19T07:34:22.415Z,16.22
2023-04-19T07:36:56.527Z,16.25
2023-04-19T07:42:31.310Z,16.49
2023-04-19T07:44:59.744Z,16.58
2023-04-19T07:47:26.680Z,16.60
2023-04-19T07:49:53.913Z,16.62
2023-04-19T07:52:20.900Z,16.60
2023-04-19T07:54:47.924Z,16.56
2023-04-19T07:57:14.818Z,16.66
2023-04-19T07:59:41.938Z,16.52
2023-04-19T08:02:09.018Z,16.71
2023-04-19T08:04:37.519Z,16.84
2023-04-19T08:07:04.937Z,17.16
2023-04-19T08:09:34.498Z,17.45
2023-04-19T08:12:01.835Z,17.68
2023-04-19T08:14:40.583Z,17.74
2023-04-19T08:19:47.800Z,18.43
2023-04-19T08:22:14.747Z,18.05
2023-04-19T08:24:41.676Z,18.49
2023-04-19T08:27:09.799Z,18.49
2023-04-19T08:29:38.856Z,18.41
2023-04-19T08:32:06.892Z,18.45
2023-04-19T08:34:39.532Z,18.58
2023-04-19T08:37:07.469Z,19.00
2023-04-19T08:39:35.121Z,18.60
2023-04-19T08:42:11.049Z,19.14
2023-04-19T08:45:05.684Z,20.07
2023-04-19T08:47:34.570Z,20.76
2023-04-19T08:50:17.365Z,21.60
2023-04-19T08:52:58.645Z,21.85
2023-04-19T08:55:31.432Z,22.65
2023-04-19T08:57:58.823Z,22.96
2023-04-19T09:00:25.793Z,22.70
2023-04-19T09:02:55.117Z,22.36
2023-04-19T09:05:22.612Z,22.84
2023-04-19T09:07:49.980Z,22.44
2023-04-19T09:10:19.471Z,22.43
2023-04-19T09:13:03.238Z,22.88
2023-04-19T09:15:41.943Z,20.96
2023-04-19T09:18:10.410Z,20.19
2023-04-19T09:20:42.843Z,19.17
2023-04-19T09:23:14.982Z,18.91
2023-04-19T09:26:15.171Z,19.49
2023-04-19T09:29:02.764Z,20.87
2023-04-19T09:31:47.926Z,20.97
2023-04-19T09:34:19.753Z,21.20
2023-04-19T09:36:47.035Z,21.99
2023-04-19T09:39:14.917Z,22.40
2023-04-19T09:41:55.035Z,22.79
2023-04-19T09:44:56.100Z,22.68
2023-04-19T09:47:26.130Z,23.34
2023-04-19T09:50:19.226Z,24.12
2023-04-19T09:52:50.402Z,24.54
2023-04-19T09:57:49.250Z,24.52
2023-04-19T10:00:16.466Z,23.56
2023-04-19T10:02:45.244Z,23.34
2023-04-19T10:05:20.422Z,22.49
2023-04-19T10:07:49.664Z,20.82
2023-04-19T10:10:22.551Z,20.72
2023-04-19T10:15:27.946Z,21.01
2023-04-19T10:17:56.876Z,20.82
2023-04-19T10:20:49.502Z,21.57
2023-04-19T10:23:18.062Z,21.40
2023-04-19T10:25:48.858Z,21.25
2023-04-19T10:28:16.882Z,21.34
2023-04-19T10:30:55.915Z,20.90
2023-04-19T10:33:28.016Z,20.66
2023-04-19T10:35:59.546Z,20.11
2023-04-19T10:38:49.130Z,19.80
2023-04-19T10:41:18.714Z,19.78
2023-04-19T10:44:09.857Z,19.24
2023-04-19T10:46:40.752Z,19.30
2023-04-19T10:49:09.749Z,19.30
2023-04-19T10:51:43.409Z,18.66
2023-04-19T10:54:33.351Z,18.65
2023-04-19T10:57:04.517Z,18.58
2023-04-19T10:59:36.801Z,18.63
2023-04-19T11:02:06.339Z,18.51
2023-04-19T11:04:33.309Z,18.51
2023-04-19T11:07:03.465Z,18.69
2023-04-19T11:09:34.560Z,18.69
2023-04-19T11:12:10.006Z,18.74
2023-04-19T11:14:38.124Z,18.81
2023-04-19T11:17:16.812Z,18.74
2023-04-19T11:20:00.341Z,18.87
2023-04-19T11:22:38.486Z,18.59
2023-04-19T11:25:09.374Z,18.57
2023-04-19T11:27:37.454Z,18.38
2023-04-19T11:30:26.048Z,18.49
2023-04-19T11:32:55.929Z,18.45
2023-04-19T11:35:30.632Z,18.46
2023-04-19T11:37:59.485Z,18.05
2023-04-19T11:40:27.353Z,18.41
2023-04-19T11:43:00.682Z,18.46
2023-04-19T11:45:38.052Z,18.57
2023-04-19T11:48:07.708Z,18.17
2023-04-19T11:50:45.158Z,18.29
2023-04-19T11:53:21.684Z,18.74
2023-04-19T11:55:53.585Z,18.70
2023-04-19T11:58:29.271Z,18.93
2023-04-19T12:01:00.679Z,19.14
2023-04-19T12:03:28.321Z,18.98
2023-04-19T12:05:57.326Z,18.81
2023-04-19T12:08:35.536Z,19.15
2023-04-19T12:11:03.653Z,19.26
2023-04-19T12:13:31.768Z,19.21
2023-04-19T12:15:59.452Z,19.25
2023-04-19T12:18:27.181Z,19.22
2023-04-19T12:20:55.048Z,19.42
2023-04-19T12:23:22.341Z,19.53
2023-04-19T12:25:50.043Z,19.45
2023-04-19T12:28:17.511Z,19.50
2023-04-19T12:30:44.563Z,19.49
2023-04-19T12:33:11.860Z,19.58
2023-04-19T12:35:39.279Z,19.42
2023-04-19T12:38:06.302Z,19.30
2023-04-19T12:40:33.606Z,19.25
2023-04-19T12:43:00.463Z,19.16
2023-04-19T12:45:27.751Z,19.12
2023-04-19T12:47:54.715Z,19.34
2023-04-19T12:50:21.828Z,19.26
2023-04-19T12:52:48.657Z,19.14
2023-04-19T12:55:15.632Z,18.92
2023-04-19T12:57:42.824Z,18.68
2023-04-19T13:00:11.158Z,18.44
2023-04-19T13:02:38.885Z,18.79
2023-04-19T13:05:06.566Z,18.71
2023-04-19T13:07:33.566Z,19.11
2023-04-19T13:10:00.664Z,19.06
2023-04-19T13:12:28.269Z,19.25
2023-04-19T13:14:55.182Z,19.39
2023-04-19T13:17:22.380Z,19.72
2023-04-19T13:19:49.412Z,19.87
2023-04-19T13:22:16.942Z,20.49
2023-04-19T13:24:43.927Z,20.51
2023-04-19T13:27:11.314Z,20.14
2023-04-19T13:29:38.324Z,21.40
2023-04-19T13:32:07.637Z,23.25
2023-04-19T13:34:35.362Z,23.14
2023-04-19T13:37:02.238Z,22.02
2023-04-19T13:39:29.201Z,22.20
2023-04-19T13:41:56.201Z,22.56
2023-04-19T13:44:25.274Z,23.05
2023-04-19T13:46:52.359Z,24.20
2023-04-19T13:49:19.574Z,22.69
2023-04-19T13:51:50.858Z,20.91
2023-04-19T13:54:20.047Z,19.96
2023-04-19T13:56:49.826Z,20.14
2023-04-19T13:59:18.442Z,19.44
2023-04-19T14:01:45.286Z,18.99
2023-04-19T14:04:12.783Z,18.77
2023-04-19T14:06:40.071Z,18.04
2023-04-19T14:09:07.077Z,17.79
2023-04-19T14:11:34.645Z,17.49
2023-04-19T14:14:01.762Z,17.51
2023-04-19T14:16:28.767Z,17.36
2023-04-19T14:18:55.950Z,18.53
2023-04-19T14:21:23.173Z,19.10
2023-04-19T14:23:50.227Z,18.41
2023-04-19T14:26:17.188Z,18.11
2023-04-19T14:28:44.624Z,17.65
2023-04-19T14:31:11.436Z,17.77
2023-04-19T14:33:38.365Z,17.61
2023-04-19T14:36:05.624Z,17.46
2023-04-19T14:38:33.570Z,17.15
2023-04-19T14:41:01.256Z,17.26
2023-04-19T14:43:28.340Z,16.88
2023-04-19T14:45:55.916Z,16.64
2023-04-19T14:48:22.958Z,16.51
2023-04-19T14:50:50.012Z,16.82
2023-04-19T14:53:16.924Z,16.36
2023-04-19T14:55:43.985Z,16.52
2023-04-19T14:58:10.867Z,16.58
2023-04-19T15:00:37.868Z,16.57
2023-04-19T15:03:05.097Z,16.48
2023-04-19T15:05:34.848Z,16.80
2023-04-19T15:08:02.030Z,16.79
2023-04-19T15:10:29.173Z,16.68
2023-04-19T15:12:56.661Z,16.83
2023-04-19T15:15:23.651Z,17.06
2023-04-19T15:17:51.292Z,16.84
2023-04-19T15:20:18.425Z,16.83
2023-04-19T15:22:45.534Z,16.78
2023-04-19T15:25:12.511Z,16.80
2023-04-19T15:27:39.545Z,16.68
2023-04-19T15:30:07.671Z,16.81
2023-04-19T15:32:37.002Z,16.61
2023-04-19T15:35:04.484Z,16.56
2023-04-19T15:37:31.407Z,16.44
2023-04-19T15:39:59.479Z,16.33
2023-04-19T15:42:26.728Z,16.29
2023-04-19T15:44:53.701Z,16.37
2023-04-19T15:47:20.614Z,16.47
2023-04-19T15:49:48.149Z,16.52
2023-04-19T15:52:15.246Z,16.40
2023-04-19T15:54:42.172Z,16.29
2023-04-19T15:57:08.946Z,16.45
2023-04-19T15:59:35.953Z,16.36
2023-04-19T16:02:02.941Z,16.56
2023-04-19T16:04:30.741Z,16.52
2023-04-19T16:06:57.887Z,16.29
2023-04-19T16:09:24.950Z,16.13
2023-04-19T16:11:52.220Z,16.15
2023-04-19T16:14:19.140Z,16.17
2023-04-19T16:16:46.090Z,15.97
2023-04-19T16:19:13.277Z,15.77
2023-04-19T16:21:40.492Z,15.59
2023-04-19T16:24:08.086Z,15.53
2023-04-19T16:26:34.900Z,15.57
2023-04-19T16:29:01.867Z,15.34
2023-04-19T16:31:28.934Z,15.21
2023-04-19T16:33:55.862Z,15.10
2023-04-19T16:36:22.977Z,15.08
2023-04-19T16:38:49.970Z,15.08
2023-04-19T16:41:17.030Z,15.00
2023-04-19T16:43:44.970Z,14.82
2023-04-19T16:46:12.236Z,14.86
2023-04-19T16:48:39.913Z,14.79
2023-04-19T16:51:08.900Z,14.75
2023-04-19T16:53:36.285Z,14.62
2023-04-19T16:56:03.779Z,14.59
2023-04-19T16:58:31.166Z,14.59
2023-04-19T17:00:58.617Z,14.57
2023-04-19T17:03:26.807Z,14.42
2023-04-19T17:05:53.967Z,14.43
2023-04-19T17:08:22.738Z,14.43
2023-04-19T17:10:49.975Z,14.32
2023-04-19T17:13:17.588Z,14.44
2023-04-19T17:15:44.837Z,14.29
2023-04-19T17:18:12.238Z,14.24
2023-04-19T17:20:39.921Z,14.23
2023-04-19T17:23:07.262Z,14.13
2023-04-19T17:25:34.436Z,13.93
2023-04-19T17:28:01.607Z,14.07
2023-04-19T17:30:28.742Z,13.98
2023-04-19T17:32:57.453Z,14.00
2023-04-19T17:35:26.420Z,13.83
2023-04-19T17:37:53.728Z,13.84
2023-04-19T17:40:22.905Z,13.85
2023-04-19T17:42:50.850Z,13.82
2023-04-19T17:45:18.763Z,13.79
2023-04-19T17:47:46.713Z,13.74
2023-04-19T17:50:14.792Z,13.73
2023-04-19T17:52:48.468Z,13.73
2023-04-19T17:55:16.559Z,13.74
2023-04-19T17:57:46.131Z,13.65
2023-04-19T18:00:14.741Z,13.64
2023-04-19T18:02:42.791Z,13.58
2023-04-19T18:05:13.925Z,13.42
2023-04-19T18:07:42.853Z,13.43
2023-04-19T18:10:11.367Z,13.50
2023-04-19T18:12:39.290Z,13.47
2023-04-19T18:15:07.746Z,13.44
2023-04-19T18:17:36.572Z,13.48
2023-04-19T18:20:08.110Z,13.46
2023-04-19T18:22:35.507Z,13.46
2023-04-19T18:25:02.980Z,13.45
2023-04-19T18:27:32.471Z,13.44
2023-04-19T18:30:04.030Z,13.37
2023-04-19T18:32:33.635Z,13.44
2023-04-19T18:35:04.881Z,13.38
2023-04-19T18:37:32.865Z,13.32
2023-04-19T18:40:01.410Z,13.10
2023-04-19T18:42:30.977Z,13.14
2023-04-19T18:44:58.141Z,13.07
2023-04-19T18:47:29.615Z,12.96
2023-04-19T18:50:05.420Z,12.85
2023-04-19T18:52:36.995Z,12.85
2023-04-19T18:55:06.860Z,12.69
2023-04-19T18:57:35.436Z,12.72
2023-04-19T19:00:06.636Z,12.57
2023-04-19T19:02:36.662Z,12.43
2023-04-19T19:05:08.308Z,12.41
2023-04-19T19:07:38.422Z,12.47
2023-04-19T19:10:19.275Z,12.44
2023-04-19T19:12:50.197Z,12.35
2023-04-19T19:15:18.692Z,12.28
2023-04-19T19:17:49.628Z,12.26
2023-04-19T19:20:19.330Z,12.09
2023-04-19T19:22:48.789Z,12.10
2023-04-19T19:25:17.286Z,12.14
2023-04-19T19:28:05.458Z,12.06
2023-04-19T19:30:40.336Z,12.02
2023-04-19T19:33:08.740Z,11.92
2023-04-19T19:35:39.553Z,11.86
2023-04-19T19:38:07.284Z,11.71
2023-04-19T19:40:35.100Z,11.75
2023-04-19T19:43:03.292Z,11.56
2023-04-19T19:45:32.402Z,11.52
2023-04-19T19:48:00.709Z,11.57
2023-04-19T19:53:01.993Z,11.48
2023-04-19T19:55:30.710Z,11.46
2023-04-19T20:00:44.966Z,11.20
2023-04-19T20:03:28.442Z,11.07
2023-04-19T20:06:17.751Z,11.16
2023-04-19T20:08:50.289Z,11.01
2023-04-19T20:11:18.519Z,11.04
2023-04-19T20:13:46.552Z,10.99
2023-04-19T20:16:15.276Z,10.96
2023-04-19T20:18:44.617Z,10.93
2023-04-19T20:21:13.568Z,10.92
2023-04-19T20:23:41.771Z,10.73
2023-04-19T20:26:10.044Z,10.72
2023-04-19T20:28:38.828Z,10.79
2023-04-19T20:31:08.840Z,10.80
2023-04-19T20:33:36.570Z,10.68
2023-04-19T20:36:04.290Z,10.68
2023-04-19T20:38:32.660Z,10.66
2023-04-19T20:41:01.082Z,10.64
2023-04-19T20:43:30.407Z,10.60
2023-04-19T20:45:58.467Z,10.55
2023-04-19T20:48:26.558Z,10.48
2023-04-19T20:50:54.391Z,10.41
2023-04-19T20:53:22.269Z,10.25
2023-04-19T20:55:49.337Z,10.11
2023-04-19T20:58:17.116Z,10.10
2023-04-19T21:00:50.717Z,10.09
2023-04-19T21:03:18.042Z,10.08
2023-04-19T21:05:45.346Z,9.95
2023-04-19T21:08:12.397Z,9.69
2023-04-19T21:10:39.439Z,9.79
2023-04-19T21:13:06.421Z,9.84
2023-04-19T21:15:33.662Z,9.85
2023-04-19T21:18:00.756Z,9.78
2023-04-19T21:20:27.929Z,9.80
2023-04-19T21:22:54.842Z,9.83
2023-04-19T21:25:21.782Z,9.80
2023-04-19T21:27:49.132Z,9.77
2023-04-19T21:30:16.039Z,9.71
2023-04-19T21:32:43.048Z,9.61
2023-04-19T21:35:10.410Z,9.55
2023-04-19T21:37:37.788Z,9.65
2023-04-19T21:40:05.716Z,9.27
2023-04-19T21:42:33.268Z,9.53
2023-04-19T21:45:00.263Z,9.53
2023-04-19T21:47:27.689Z,9.39
2023-04-19T21:49:54.920Z,9.27
2023-04-19T21:52:21.876Z,9.33
2023-04-19T21:54:49.133Z,9.23
2023-04-19T21:57:17.650Z,9.12
2023-04-19T21:59:44.529Z,9.05
2023-04-19T22:02:11.570Z,9.03
2023-04-19T22:04:39.676Z,9.13
2023-04-19T22:07:07.725Z,9.09
2023-04-19T22:09:35.071Z,9.08
2023-04-19T22:12:02.446Z,9.07
2023-04-19T22:14:30.868Z,8.90
2023-04-19T22:16:59.852Z,8.88
2023-04-19T22:19:27.130Z,8.89
2023-04-19T22:21:55.173Z,8.96
2023-04-19T22:24:22.794Z,8.91
2023-04-19T22:26:50.885Z,8.96
2023-04-19T22:29:18.017Z,8.88
2023-04-19T22:31:45.397Z,8.88
2023-04-19T22:34:12.256Z,8.89
2023-04-19T22:36:39.150Z,8.85
2023-04-19T22:39:06.231Z,8.84
2023-04-19T22:41:33.571Z,8.80
2023-04-19T22:44:01.086Z,8.81
2023-04-19T22:46:28.051Z,8.80
2023-04-19T22:48:56.153Z,8.78
2023-04-19T22:51:24.383Z,8.66
2023-04-19T22:53:51.398Z,8.62
2023-04-19T22:56:18.470Z,8.41
2023-04-19T22:58:45.942Z,8.56
2023-04-19T23:01:13.151Z,8.45
2023-04-19T23:03:40.227Z,8.39
2023-04-19T23:06:08.068Z,8.47
2023-04-19T23:08:35.326Z,8.38
2023-04-19T23:11:02.351Z,8.39
2023-04-19T23:13:29.234Z,8.37
2023-04-19T23:15:56.125Z,8.32
2023-04-19T23:18:23.700Z,8.33
2023-04-19T23:20:50.630Z,8.38
2023-04-19T23:23:17.637Z,8.23
2023-04-19T23:25:44.821Z,8.36
2023-04-19T23:28:12.629Z,8.37
2023-04-19T23:30:39.887Z,8.36
2023-04-19T23:33:06.975Z,8.23
2023-04-19T23:35:34.225Z,8.35
2023-04-19T23:38:01.291Z,8.34
2023-04-19T23:40:28.232Z,8.27
2023-04-19T23:42:55.843Z,8.31
2023-04-19T23:45:23.261Z,8.24
2023-04-19T23:47:50.580Z,8.42
2023-04-19T23:50:17.654Z,8.41
2023-04-19T23:52:44.787Z,8.33
2023-04-19T23:55:11.978Z,8.46
2023-04-19T23:57:38.915Z,8.49
